sensor_id;sensor_type;location;lat;lon;timestamp;temperature;humidity
37426;DHT22;23285;50.180;7.036;2022-10-30T00:02:15;15.70;99.90
37426;DHT22;23285;50.180;7.036;2022-10-30T00:05:01;15.70;99.90
37426;DHT22;23285;50.180;7.036;2022-10-30T00:07:46;15.80;99.90
37426;DHT22;23285;50.180;7.036;2022-10-30T00:13:19;15.80;99.90
37426;DHT22;23285;50.180;7.036;2022-10-30T00:16:06;15.80;99.90
37426;DHT22;23285;50.180;7.036;2022-10-30T00:18:51;15.80;99.90
37426;DHT22;23285;50.180;7.036;2022-10-30T00:21:36;15.70;99.90
37426;DHT22;23285;50.180;7.036;2022-10-30T00:27:07;15.60;99.90
37426;DHT22;23285;50.180;7.036;2022-10-30T00:32:38;15.50;99.90
37426;DHT22;23285;50.180;7.036;2022-10-30T00:35:23;15.50;99.90
37426;DHT22;23285;50.180;7.036;2022-10-30T00:38:08;15.70;99.90
37426;DHT22;23285;50.180;7.036;2022-10-30T00:40:53;15.60;99.90
37426;DHT22;23285;50.180;7.036;2022-10-30T00:49:15;15.70;99.90
37426;DHT22;23285;50.180;7.036;2022-10-30T00:52:02;15.50;99.90
37426;DHT22;23285;50.180;7.036;2022-10-30T00:54:50;15.60;99.90
37426;DHT22;23285;50.180;7.036;2022-10-30T00:57:37;15.70;99.90
37426;DHT22;23285;50.180;7.036;2022-10-30T01:00:23;15.60;99.90
37426;DHT22;23285;50.180;7.036;2022-10-30T01:06:00;15.70;99.90
37426;DHT22;23285;50.180;7.036;2022-10-30T01:08:47;15.60;99.90
37426;DHT22;23285;50.180;7.036;2022-10-30T01:11:32;15.60;99.90
37426;DHT22;23285;50.180;7.036;2022-10-30T01:14:19;15.50;99.90
37426;DHT22;23285;50.180;7.036;2022-10-30T01:29:58;15.50;99.90
37426;DHT22;23285;50.180;7.036;2022-10-30T01:33:15;15.40;99.90
37426;DHT22;23285;50.180;7.036;2022-10-30T01:38:54;15.30;99.90
37426;DHT22;23285;50.180;7.036;2022-10-30T01:41:41;15.10;99.90
37426;DHT22;23285;50.180;7.036;2022-10-30T01:47:37;15.10;99.90
37426;DHT22;23285;50.180;7.036;2022-10-30T01:53:45;15.00;99.90
37426;DHT22;23285;50.180;7.036;2022-10-30T02:02:57;15.00;99.90
37426;DHT22;23285;50.180;7.036;2022-10-30T02:08:35;15.10;99.90
37426;DHT22;23285;50.180;7.036;2022-10-30T02:11:21;15.20;99.90
37426;DHT22;23285;50.180;7.036;2022-10-30T02:16:56;15.00;99.90
37426;DHT22;23285;50.180;7.036;2022-10-30T02:19:42;14.90;99.90
37426;DHT22;23285;50.180;7.036;2022-10-30T02:22:27;15.10;99.90
37426;DHT22;23285;50.180;7.036;2022-10-30T02:25:13;15.00;99.90
37426;DHT22;23285;50.180;7.036;2022-10-30T02:27:58;14.90;99.90
37426;DHT22;23285;50.180;7.036;2022-10-30T02:30:45;14.80;99.90
37426;DHT22;23285;50.180;7.036;2022-10-30T02:33:30;14.70;99.90
37426;DHT22;23285;50.180;7.036;2022-10-30T02:36:15;14.70;99.90
37426;DHT22;23285;50.180;7.036;2022-10-30T02:39:00;14.60;99.90
37426;DHT22;23285;50.180;7.036;2022-10-30T02:41:46;14.50;99.90
37426;DHT22;23285;50.180;7.036;2022-10-30T02:44:31;14.60;99.90
37426;DHT22;23285;50.180;7.036;2022-10-30T02:47:16;14.50;99.90
37426;DHT22;23285;50.180;7.036;2022-10-30T02:50:01;14.60;99.90
37426;DHT22;23285;50.180;7.036;2022-10-30T02:55:31;14.50;99.90
37426;DHT22;23285;50.180;7.036;2022-10-30T02:58:17;14.50;99.90
37426;DHT22;23285;50.180;7.036;2022-10-30T03:01:20;14.50;99.90
37426;DHT22;23285;50.180;7.036;2022-10-30T03:04:09;14.50;99.90
37426;DHT22;23285;50.180;7.036;2022-10-30T03:06:54;14.50;99.90
37426;DHT22;23285;50.180;7.036;2022-10-30T03:15:11;14.50;99.90
37426;DHT22;23285;50.180;7.036;2022-10-30T03:17:56;14.30;99.90
37426;DHT22;23285;50.180;7.036;2022-10-30T03:20:41;14.20;99.90
37426;DHT22;23285;50.180;7.036;2022-10-30T03:26:12;14.10;99.90
37426;DHT22;23285;50.180;7.036;2022-10-30T03:29:09;14.20;99.90
37426;DHT22;23285;50.180;7.036;2022-10-30T03:34:40;14.20;99.90
37426;DHT22;23285;50.180;7.036;2022-10-30T03:37:26;14.10;99.90
37426;DHT22;23285;50.180;7.036;2022-10-30T03:40:11;14.00;99.90
37426;DHT22;23285;50.180;7.036;2022-10-30T03:48:32;14.20;99.90
37426;DHT22;23285;50.180;7.036;2022-10-30T03:51:17;14.50;99.90
37426;DHT22;23285;50.180;7.036;2022-10-30T03:54:04;14.30;99.90
37426;DHT22;23285;50.180;7.036;2022-10-30T03:56:53;13.90;99.90
37426;DHT22;23285;50.180;7.036;2022-10-30T04:02:51;14.10;99.90
37426;DHT22;23285;50.180;7.036;2022-10-30T04:05:37;13.90;99.90
37426;DHT22;23285;50.180;7.036;2022-10-30T04:11:09;13.80;99.90
37426;DHT22;23285;50.180;7.036;2022-10-30T04:13:55;13.70;99.90
37426;DHT22;23285;50.180;7.036;2022-10-30T04:16:40;13.70;99.90
37426;DHT22;23285;50.180;7.036;2022-10-30T04:19:25;13.90;99.90
37426;DHT22;23285;50.180;7.036;2022-10-30T04:24:56;13.70;99.90
37426;DHT22;23285;50.180;7.036;2022-10-30T04:27:43;13.80;99.90
37426;DHT22;23285;50.180;7.036;2022-10-30T04:30:30;13.80;99.90
37426;DHT22;23285;50.180;7.036;2022-10-30T04:33:19;13.80;99.90
37426;DHT22;23285;50.180;7.036;2022-10-30T04:36:04;13.60;99.90
37426;DHT22;23285;50.180;7.036;2022-10-30T04:38:50;13.50;99.90
37426;DHT22;23285;50.180;7.036;2022-10-30T04:41:37;13.50;99.90
37426;DHT22;23285;50.180;7.036;2022-10-30T04:47:15;13.50;99.90
37426;DHT22;23285;50.180;7.036;2022-10-30T04:50:01;13.50;99.90
37426;DHT22;23285;50.180;7.036;2022-10-30T04:52:46;13.40;99.90
37426;DHT22;23285;50.180;7.036;2022-10-30T04:55:31;13.40;99.90
37426;DHT22;23285;50.180;7.036;2022-10-30T04:58:17;13.50;99.90
37426;DHT22;23285;50.180;7.036;2022-10-30T05:01:05;13.40;99.90
37426;DHT22;23285;50.180;7.036;2022-10-30T05:03:52;13.50;99.90
37426;DHT22;23285;50.180;7.036;2022-10-30T05:09:23;13.40;99.90
37426;DHT22;23285;50.180;7.036;2022-10-30T05:12:09;13.30;99.90
37426;DHT22;23285;50.180;7.036;2022-10-30T05:15:05;13.30;99.90
37426;DHT22;23285;50.180;7.036;2022-10-30T05:23:23;13.20;99.90
37426;DHT22;23285;50.180;7.036;2022-10-30T05:26:10;13.30;99.90
37426;DHT22;23285;50.180;7.036;2022-10-30T05:28:55;13.20;99.90
37426;DHT22;23285;50.180;7.036;2022-10-30T05:31:40;13.30;99.90
37426;DHT22;23285;50.180;7.036;2022-10-30T05:34:34;13.20;99.90
37426;DHT22;23285;50.180;7.036;2022-10-30T05:37:21;13.10;99.90
37426;DHT22;23285;50.180;7.036;2022-10-30T05:40:07;13.00;99.90
37426;DHT22;23285;50.180;7.036;2022-10-30T05:42:52;13.60;99.90
37426;DHT22;23285;50.180;7.036;2022-10-30T05:45:37;13.70;99.90
37426;DHT22;23285;50.180;7.036;2022-10-30T05:51:11;13.70;99.90
37426;DHT22;23285;50.180;7.036;2022-10-30T05:54:01;13.20;99.90
37426;DHT22;23285;50.180;7.036;2022-10-30T05:59:33;13.10;99.90
37426;DHT22;23285;50.180;7.036;2022-10-30T06:05:03;13.10;99.90
37426;DHT22;23285;50.180;7.036;2022-10-30T06:07:48;13.10;99.90
37426;DHT22;23285;50.180;7.036;2022-10-30T06:10:34;13.00;99.90
37426;DHT22;23285;50.180;7.036;2022-10-30T06:13:39;13.00;99.90
37426;DHT22;23285;50.180;7.036;2022-10-30T06:19:52;13.00;99.90
37426;DHT22;23285;50.180;7.036;2022-10-30T06:23:05;12.90;99.90
37426;DHT22;23285;50.180;7.036;2022-10-30T06:26:04;13.00;99.90
37426;DHT22;23285;50.180;7.036;2022-10-30T06:28:53;12.90;99.90
37426;DHT22;23285;50.180;7.036;2022-10-30T06:31:39;12.90;99.90
37426;DHT22;23285;50.180;7.036;2022-10-30T06:34:24;13.30;99.90
37426;DHT22;23285;50.180;7.036;2022-10-30T06:37:11;13.20;99.90
37426;DHT22;23285;50.180;7.036;2022-10-30T06:39:57;13.00;99.90
37426;DHT22;23285;50.180;7.036;2022-10-30T06:46:01;13.20;99.90
37426;DHT22;23285;50.180;7.036;2022-10-30T06:51:34;13.30;99.90
37426;DHT22;23285;50.180;7.036;2022-10-30T06:54:19;13.10;99.90
37426;DHT22;23285;50.180;7.036;2022-10-30T06:57:25;13.00;99.90
37426;DHT22;23285;50.180;7.036;2022-10-30T07:00:24;13.10;99.90
37426;DHT22;23285;50.180;7.036;2022-10-30T07:03:27;13.20;99.90
37426;DHT22;23285;50.180;7.036;2022-10-30T07:06:12;13.20;99.90
37426;DHT22;23285;50.180;7.036;2022-10-30T07:08:57;13.40;99.90
37426;DHT22;23285;50.180;7.036;2022-10-30T07:11:42;13.30;99.90
37426;DHT22;23285;50.180;7.036;2022-10-30T07:14:44;13.40;99.90
37426;DHT22;23285;50.180;7.036;2022-10-30T07:17:57;13.60;99.90
37426;DHT22;23285;50.180;7.036;2022-10-30T07:23:28;13.80;99.90
37426;DHT22;23285;50.180;7.036;2022-10-30T07:26:22;13.80;99.90
37426;DHT22;23285;50.180;7.036;2022-10-30T07:29:09;13.90;99.90
37426;DHT22;23285;50.180;7.036;2022-10-30T07:31:59;13.90;99.90
37426;DHT22;23285;50.180;7.036;2022-10-30T07:34:49;13.90;99.90
37426;DHT22;23285;50.180;7.036;2022-10-30T07:37:53;14.00;99.90
37426;DHT22;23285;50.180;7.036;2022-10-30T07:40:51;14.20;99.90
37426;DHT22;23285;50.180;7.036;2022-10-30T07:43:55;14.20;99.90
37426;DHT22;23285;50.180;7.036;2022-10-30T07:47:00;14.40;99.90
37426;DHT22;23285;50.180;7.036;2022-10-30T07:52:50;14.50;99.90
37426;DHT22;23285;50.180;7.036;2022-10-30T07:55:43;14.60;99.90
37426;DHT22;23285;50.180;7.036;2022-10-30T07:58:31;14.70;99.90
37426;DHT22;23285;50.180;7.036;2022-10-30T08:01:16;14.90;99.90
37426;DHT22;23285;50.180;7.036;2022-10-30T08:04:01;15.30;99.90
37426;DHT22;23285;50.180;7.036;2022-10-30T08:06:47;15.30;99.90
37426;DHT22;23285;50.180;7.036;2022-10-30T08:12:20;15.50;99.90
37426;DHT22;23285;50.180;7.036;2022-10-30T08:15:05;15.50;99.90
37426;DHT22;23285;50.180;7.036;2022-10-30T08:17:51;15.70;99.90
37426;DHT22;23285;50.180;7.036;2022-10-30T08:20:36;16.10;99.90
37426;DHT22;23285;50.180;7.036;2022-10-30T08:23:21;16.20;99.90
37426;DHT22;23285;50.180;7.036;2022-10-30T08:26:06;16.30;99.90
37426;DHT22;23285;50.180;7.036;2022-10-30T08:28:54;16.60;99.90
37426;DHT22;23285;50.180;7.036;2022-10-30T08:31:39;16.80;99.90
37426;DHT22;23285;50.180;7.036;2022-10-30T08:34:58;17.00;99.90
37426;DHT22;23285;50.180;7.036;2022-10-30T08:37:43;17.00;99.90
37426;DHT22;23285;50.180;7.036;2022-10-30T08:40:28;17.20;99.90
37426;DHT22;23285;50.180;7.036;2022-10-30T08:48:54;17.40;99.90
37426;DHT22;23285;50.180;7.036;2022-10-30T08:51:40;17.40;99.90
37426;DHT22;23285;50.180;7.036;2022-10-30T08:54:26;17.60;99.90
37426;DHT22;23285;50.180;7.036;2022-10-30T08:57:12;17.50;99.90
37426;DHT22;23285;50.180;7.036;2022-10-30T08:59:57;17.20;99.90
37426;DHT22;23285;50.180;7.036;2022-10-30T09:03:03;17.40;99.90
37426;DHT22;23285;50.180;7.036;2022-10-30T09:06:06;17.60;99.90
37426;DHT22;23285;50.180;7.036;2022-10-30T09:08:51;17.40;99.90
37426;DHT22;23285;50.180;7.036;2022-10-30T09:11:55;17.30;99.90
37426;DHT22;23285;50.180;7.036;2022-10-30T09:14:40;17.50;99.90
37426;DHT22;23285;50.180;7.036;2022-10-30T09:20:13;17.70;99.90
37426;DHT22;23285;50.180;7.036;2022-10-30T09:22:58;17.80;99.90
37426;DHT22;23285;50.180;7.036;2022-10-30T09:25:43;17.90;99.90
37426;DHT22;23285;50.180;7.036;2022-10-30T09:28:48;18.10;99.90
37426;DHT22;23285;50.180;7.036;2022-10-30T09:35:12;18.20;99.90
37426;DHT22;23285;50.180;7.036;2022-10-30T09:37:59;18.30;99.90
37426;DHT22;23285;50.180;7.036;2022-10-30T09:41:08;18.50;99.90
37426;DHT22;23285;50.180;7.036;2022-10-30T09:47:31;18.60;99.90
37426;DHT22;23285;50.180;7.036;2022-10-30T09:50:29;18.40;99.90
37426;DHT22;23285;50.180;7.036;2022-10-30T09:57:19;18.70;99.90
37426;DHT22;23285;50.180;7.036;2022-10-30T10:00:15;18.70;99.90
37426;DHT22;23285;50.180;7.036;2022-10-30T10:06:42;19.10;99.90
37426;DHT22;23285;50.180;7.036;2022-10-30T10:09:46;19.40;99.90
37426;DHT22;23285;50.180;7.036;2022-10-30T10:12:47;19.50;99.90
37426;DHT22;23285;50.180;7.036;2022-10-30T10:15:40;19.50;99.90
37426;DHT22;23285;50.180;7.036;2022-10-30T10:30:19;19.90;99.90
37426;DHT22;23285;50.180;7.036;2022-10-30T10:48:42;20.40;99.90
37426;DHT22;23285;50.180;7.036;2022-10-30T10:51:40;20.30;99.90
37426;DHT22;23285;50.180;7.036;2022-10-30T10:57:34;20.50;99.90
37426;DHT22;23285;50.180;7.036;2022-10-30T11:00:21;20.70;99.90
37426;DHT22;23285;50.180;7.036;2022-10-30T11:03:19;20.70;99.90
37426;DHT22;23285;50.180;7.036;2022-10-30T11:06:27;20.50;99.90
37426;DHT22;23285;50.180;7.036;2022-10-30T11:09:18;20.50;99.90
37426;DHT22;23285;50.180;7.036;2022-10-30T11:12:04;20.70;99.90
37426;DHT22;23285;50.180;7.036;2022-10-30T11:14:49;20.60;99.90
37426;DHT22;23285;50.180;7.036;2022-10-30T11:17:38;20.70;99.90
37426;DHT22;23285;50.180;7.036;2022-10-30T11:23:38;20.40;99.90
37426;DHT22;23285;50.180;7.036;2022-10-30T11:26:29;20.40;99.90
37426;DHT22;23285;50.180;7.036;2022-10-30T11:29:22;20.60;99.90
37426;DHT22;23285;50.180;7.036;2022-10-30T11:38:17;20.80;99.90
37426;DHT22;23285;50.180;7.036;2022-10-30T11:41:02;20.80;99.90
37426;DHT22;23285;50.180;7.036;2022-10-30T11:43:47;21.00;99.90
37426;DHT22;23285;50.180;7.036;2022-10-30T11:46:34;20.80;99.90
37426;DHT22;23285;50.180;7.036;2022-10-30T11:49:43;21.00;99.90
37426;DHT22;23285;50.180;7.036;2022-10-30T11:55:25;21.40;99.90
37426;DHT22;23285;50.180;7.036;2022-10-30T12:01:18;21.00;99.90
37426;DHT22;23285;50.180;7.036;2022-10-30T12:10:03;21.80;99.90
37426;DHT22;23285;50.180;7.036;2022-10-30T12:12:49;22.00;99.90
37426;DHT22;23285;50.180;7.036;2022-10-30T12:15:36;21.70;99.90
37426;DHT22;23285;50.180;7.036;2022-10-30T12:21:17;21.30;99.90
37426;DHT22;23285;50.180;7.036;2022-10-30T12:26:52;21.10;99.90
37426;DHT22;23285;50.180;7.036;2022-10-30T12:35:56;21.00;99.90
37426;DHT22;23285;50.180;7.036;2022-10-30T12:38:51;21.00;99.90
37426;DHT22;23285;50.180;7.036;2022-10-30T12:44:35;20.80;99.90
37426;DHT22;23285;50.180;7.036;2022-10-30T12:50:31;20.60;99.90
37426;DHT22;23285;50.180;7.036;2022-10-30T12:56:37;20.30;99.90
37426;DHT22;23285;50.180;7.036;2022-10-30T12:59:29;20.40;99.90
37426;DHT22;23285;50.180;7.036;2022-10-30T13:11:26;20.10;99.90
37426;DHT22;23285;50.180;7.036;2022-10-30T13:14:16;20.00;99.90
37426;DHT22;23285;50.180;7.036;2022-10-30T13:17:02;20.00;99.90
37426;DHT22;23285;50.180;7.036;2022-10-30T13:19:48;20.10;99.90
37426;DHT22;23285;50.180;7.036;2022-10-30T13:28:30;20.30;99.90
37426;DHT22;23285;50.180;7.036;2022-10-30T13:31:19;20.50;99.90
37426;DHT22;23285;50.180;7.036;2022-10-30T13:52:21;20.30;99.90
37426;DHT22;23285;50.180;7.036;2022-10-30T13:55:21;20.50;99.90
37426;DHT22;23285;50.180;7.036;2022-10-30T14:04:41;20.50;99.90
37426;DHT22;23285;50.180;7.036;2022-10-30T14:10:51;20.10;99.90
37426;DHT22;23285;50.180;7.036;2022-10-30T14:19:19;20.10;99.90
37426;DHT22;23285;50.180;7.036;2022-10-30T14:22:22;20.20;99.90
37426;DHT22;23285;50.180;7.036;2022-10-30T14:27:58;20.20;99.90
37426;DHT22;23285;50.180;7.036;2022-10-30T14:30:43;20.20;99.90
37426;DHT22;23285;50.180;7.036;2022-10-30T14:42:52;20.00;99.90
37426;DHT22;23285;50.180;7.036;2022-10-30T14:45:59;20.20;99.90
37426;DHT22;23285;50.180;7.036;2022-10-30T14:48:59;19.90;99.90
37426;DHT22;23285;50.180;7.036;2022-10-30T14:51:53;20.20;99.90
37426;DHT22;23285;50.180;7.036;2022-10-30T14:57:50;20.20;99.90
37426;DHT22;23285;50.180;7.036;2022-10-30T15:00:40;20.40;99.90
37426;DHT22;23285;50.180;7.036;2022-10-30T15:13:17;20.30;99.90
37426;DHT22;23285;50.180;7.036;2022-10-30T15:21:53;20.30;99.90
37426;DHT22;23285;50.180;7.036;2022-10-30T15:24:39;20.20;99.90
37426;DHT22;23285;50.180;7.036;2022-10-30T15:32:58;20.00;99.90
37426;DHT22;23285;50.180;7.036;2022-10-30T15:35:46;20.50;99.90
37426;DHT22;23285;50.180;7.036;2022-10-30T15:38:31;20.80;99.90
37426;DHT22;23285;50.180;7.036;2022-10-30T15:41:17;20.80;99.90
37426;DHT22;23285;50.180;7.036;2022-10-30T15:44:02;20.70;99.90
37426;DHT22;23285;50.180;7.036;2022-10-30T15:46:52;20.60;99.90
37426;DHT22;23285;50.180;7.036;2022-10-30T15:49:40;20.60;99.90
37426;DHT22;23285;50.180;7.036;2022-10-30T15:52:28;20.60;99.90
37426;DHT22;23285;50.180;7.036;2022-10-30T15:55:16;20.60;99.90
37426;DHT22;23285;50.180;7.036;2022-10-30T15:58:03;20.10;99.90
37426;DHT22;23285;50.180;7.036;2022-10-30T16:00:59;20.10;99.90
37426;DHT22;23285;50.180;7.036;2022-10-30T16:06:37;20.20;99.90
37426;DHT22;23285;50.180;7.036;2022-10-30T16:09:23;20.20;99.90
37426;DHT22;23285;50.180;7.036;2022-10-30T16:12:09;19.90;99.90
37426;DHT22;23285;50.180;7.036;2022-10-30T16:14:55;19.60;99.90
37426;DHT22;23285;50.180;7.036;2022-10-30T16:17:41;19.40;99.90
37426;DHT22;23285;50.180;7.036;2022-10-30T16:20:26;19.40;99.90
37426;DHT22;23285;50.180;7.036;2022-10-30T16:23:12;19.40;99.90
37426;DHT22;23285;50.180;7.036;2022-10-30T16:25:58;19.30;99.90
37426;DHT22;23285;50.180;7.036;2022-10-30T16:31:33;19.30;99.90
37426;DHT22;23285;50.180;7.036;2022-10-30T16:34:25;19.10;99.90
37426;DHT22;23285;50.180;7.036;2022-10-30T16:37:31;19.30;99.90
37426;DHT22;23285;50.180;7.036;2022-10-30T16:40:21;19.40;99.90
37426;DHT22;23285;50.180;7.036;2022-10-30T16:43:24;19.20;99.90
37426;DHT22;23285;50.180;7.036;2022-10-30T16:49:06;19.10;99.90
37426;DHT22;23285;50.180;7.036;2022-10-30T16:55:14;18.90;99.90
37426;DHT22;23285;50.180;7.036;2022-10-30T16:57:58;18.70;99.90
37426;DHT22;23285;50.180;7.036;2022-10-30T17:18:14;18.40;99.90
37426;DHT22;23285;50.180;7.036;2022-10-30T17:23:51;18.40;99.90
37426;DHT22;23285;50.180;7.036;2022-10-30T17:26:37;18.30;99.90
37426;DHT22;23285;50.180;7.036;2022-10-30T17:32:26;18.50;99.90
37426;DHT22;23285;50.180;7.036;2022-10-30T17:37:58;18.40;99.90
37426;DHT22;23285;50.180;7.036;2022-10-30T17:40:43;18.40;99.90
37426;DHT22;23285;50.180;7.036;2022-10-30T17:46:14;18.20;99.90
37426;DHT22;23285;50.180;7.036;2022-10-30T17:48:59;18.40;99.90
37426;DHT22;23285;50.180;7.036;2022-10-30T17:54:30;18.20;99.90
37426;DHT22;23285;50.180;7.036;2022-10-30T17:57:15;18.40;99.90
37426;DHT22;23285;50.180;7.036;2022-10-30T18:00:00;18.20;99.90
37426;DHT22;23285;50.180;7.036;2022-10-30T18:02:45;18.10;99.90
37426;DHT22;23285;50.180;7.036;2022-10-30T18:05:33;18.20;99.90
37426;DHT22;23285;50.180;7.036;2022-10-30T18:08:19;18.20;99.90
37426;DHT22;23285;50.180;7.036;2022-10-30T18:13:51;17.90;99.90
37426;DHT22;23285;50.180;7.036;2022-10-30T18:16:36;18.00;99.90
37426;DHT22;23285;50.180;7.036;2022-10-30T18:19:21;18.20;99.90
37426;DHT22;23285;50.180;7.036;2022-10-30T18:22:07;18.00;99.90
37426;DHT22;23285;50.180;7.036;2022-10-30T18:24:52;17.90;99.90
37426;DHT22;23285;50.180;7.036;2022-10-30T18:27:37;17.90;99.90
37426;DHT22;23285;50.180;7.036;2022-10-30T18:33:09;18.00;99.90
37426;DHT22;23285;50.180;7.036;2022-10-30T18:35:57;17.90;99.90
37426;DHT22;23285;50.180;7.036;2022-10-30T18:41:31;18.00;99.90
37426;DHT22;23285;50.180;7.036;2022-10-30T18:44:17;17.90;99.90
37426;DHT22;23285;50.180;7.036;2022-10-30T18:52:35;18.00;99.90
37426;DHT22;23285;50.180;7.036;2022-10-30T18:55:22;17.80;99.90
37426;DHT22;23285;50.180;7.036;2022-10-30T19:00:53;17.90;99.90
37426;DHT22;23285;50.180;7.036;2022-10-30T19:03:38;17.70;99.90
37426;DHT22;23285;50.180;7.036;2022-10-30T19:06:23;17.50;99.90
37426;DHT22;23285;50.180;7.036;2022-10-30T19:09:08;17.40;99.90
37426;DHT22;23285;50.180;7.036;2022-10-30T19:11:53;17.30;99.90
37426;DHT22;23285;50.180;7.036;2022-10-30T19:14:38;17.80;99.90
37426;DHT22;23285;50.180;7.036;2022-10-30T19:17:23;17.50;99.90
37426;DHT22;23285;50.180;7.036;2022-10-30T19:20:09;17.20;99.90
37426;DHT22;23285;50.180;7.036;2022-10-30T19:22:54;17.50;99.90
37426;DHT22;23285;50.180;7.036;2022-10-30T19:28:28;17.40;99.90
37426;DHT22;23285;50.180;7.036;2022-10-30T19:34:00;17.20;99.90
37426;DHT22;23285;50.180;7.036;2022-10-30T19:36:45;17.00;99.90
37426;DHT22;23285;50.180;7.036;2022-10-30T19:39:30;17.00;99.90
37426;DHT22;23285;50.180;7.036;2022-10-30T19:42:16;17.10;99.90
37426;DHT22;23285;50.180;7.036;2022-10-30T19:45:01;17.00;99.90
37426;DHT22;23285;50.180;7.036;2022-10-30T19:50:36;17.10;99.90
37426;DHT22;23285;50.180;7.036;2022-10-30T19:53:22;16.70;99.90
37426;DHT22;23285;50.180;7.036;2022-10-30T19:58:54;16.50;99.90
37426;DHT22;23285;50.180;7.036;2022-10-30T20:01:39;16.30;99.90
37426;DHT22;23285;50.180;7.036;2022-10-30T20:04:25;16.40;99.90
37426;DHT22;23285;50.180;7.036;2022-10-30T20:07:10;16.20;99.90
37426;DHT22;23285;50.180;7.036;2022-10-30T20:09:55;16.40;99.90
37426;DHT22;23285;50.180;7.036;2022-10-30T20:12:40;16.40;99.90
37426;DHT22;23285;50.180;7.036;2022-10-30T20:15:26;16.30;99.90
37426;DHT22;23285;50.180;7.036;2022-10-30T20:18:20;16.20;99.90
37426;DHT22;23285;50.180;7.036;2022-10-30T20:21:08;16.10;99.90
37426;DHT22;23285;50.180;7.036;2022-10-30T20:23:53;16.20;99.90
37426;DHT22;23285;50.180;7.036;2022-10-30T20:26:38;16.30;99.90
37426;DHT22;23285;50.180;7.036;2022-10-30T20:29:25;16.50;99.90
37426;DHT22;23285;50.180;7.036;2022-10-30T20:32:11;16.30;99.90
37426;DHT22;23285;50.180;7.036;2022-10-30T20:34:56;16.40;99.90
37426;DHT22;23285;50.180;7.036;2022-10-30T20:37:43;16.80;99.90
37426;DHT22;23285;50.180;7.036;2022-10-30T20:40:29;16.90;99.90
37426;DHT22;23285;50.180;7.036;2022-10-30T20:46:03;16.40;99.90
37426;DHT22;23285;50.180;7.036;2022-10-30T20:48:48;16.30;99.90
37426;DHT22;23285;50.180;7.036;2022-10-30T20:51:33;16.40;99.90
37426;DHT22;23285;50.180;7.036;2022-10-30T20:57:04;16.10;99.90
37426;DHT22;23285;50.180;7.036;2022-10-30T20:59:49;16.10;99.90
37426;DHT22;23285;50.180;7.036;2022-10-30T21:02:34;16.00;99.90
37426;DHT22;23285;50.180;7.036;2022-10-30T21:05:19;15.80;99.90
37426;DHT22;23285;50.180;7.036;2022-10-30T21:08:04;15.70;99.90
37426;DHT22;23285;50.180;7.036;2022-10-30T21:10:49;15.60;99.90
37426;DHT22;23285;50.180;7.036;2022-10-30T21:13:35;16.00;99.90
37426;DHT22;23285;50.180;7.036;2022-10-30T21:19:06;15.70;99.90
37426;DHT22;23285;50.180;7.036;2022-10-30T21:21:51;15.70;99.90
37426;DHT22;23285;50.180;7.036;2022-10-30T21:24:36;15.60;99.90
37426;DHT22;23285;50.180;7.036;2022-10-30T21:27:21;15.70;99.90
37426;DHT22;23285;50.180;7.036;2022-10-30T21:30:07;15.80;99.90
37426;DHT22;23285;50.180;7.036;2022-10-30T21:35:39;15.60;99.90
37426;DHT22;23285;50.180;7.036;2022-10-30T21:38:24;15.40;99.90
37426;DHT22;23285;50.180;7.036;2022-10-30T21:41:19;15.50;99.90
37426;DHT22;23285;50.180;7.036;2022-10-30T21:44:05;15.50;99.90
37426;DHT22;23285;50.180;7.036;2022-10-30T21:46:50;15.40;99.90
37426;DHT22;23285;50.180;7.036;2022-10-30T21:49:35;15.60;99.90
37426;DHT22;23285;50.180;7.036;2022-10-30T21:52:20;15.50;99.90
37426;DHT22;23285;50.180;7.036;2022-10-30T21:55:05;15.30;99.90
37426;DHT22;23285;50.180;7.036;2022-10-30T21:57:50;15.20;99.90
37426;DHT22;23285;50.180;7.036;2022-10-30T22:00:35;15.30;99.90
37426;DHT22;23285;50.180;7.036;2022-10-30T22:03:20;15.40;99.90
37426;DHT22;23285;50.180;7.036;2022-10-30T22:06:06;15.40;99.90
37426;DHT22;23285;50.180;7.036;2022-10-30T22:11:38;15.40;99.90
37426;DHT22;23285;50.180;7.036;2022-10-30T22:14:23;15.50;99.90
37426;DHT22;23285;50.180;7.036;2022-10-30T22:17:09;15.80;99.90
37426;DHT22;23285;50.180;7.036;2022-10-30T22:19:54;15.60;99.90
37426;DHT22;23285;50.180;7.036;2022-10-30T22:22:39;15.90;99.90
37426;DHT22;23285;50.180;7.036;2022-10-30T22:25:24;15.70;99.90
37426;DHT22;23285;50.180;7.036;2022-10-30T22:28:09;15.60;99.90
37426;DHT22;23285;50.180;7.036;2022-10-30T22:30:54;15.40;99.90
37426;DHT22;23285;50.180;7.036;2022-10-30T22:33:44;15.10;99.90
37426;DHT22;23285;50.180;7.036;2022-10-30T22:36:31;15.00;99.90
37426;DHT22;23285;50.180;7.036;2022-10-30T22:47:32;14.60;99.90
37426;DHT22;23285;50.180;7.036;2022-10-30T22:50:17;14.60;99.90
37426;DHT22;23285;50.180;7.036;2022-10-30T22:55:48;14.70;99.90
37426;DHT22;23285;50.180;7.036;2022-10-30T22:58:33;14.70;99.90
37426;DHT22;23285;50.180;7.036;2022-10-30T23:01:19;14.40;99.90
37426;DHT22;23285;50.180;7.036;2022-10-30T23:04:05;14.40;99.90
37426;DHT22;23285;50.180;7.036;2022-10-30T23:06:50;14.60;99.90
37426;DHT22;23285;50.180;7.036;2022-10-30T23:09:36;15.00;99.90
37426;DHT22;23285;50.180;7.036;2022-10-30T23:12:27;15.00;99.90
37426;DHT22;23285;50.180;7.036;2022-10-30T23:15:12;15.00;99.90
37426;DHT22;23285;50.180;7.036;2022-10-30T23:17:57;14.60;99.90
37426;DHT22;23285;50.180;7.036;2022-10-30T23:20:44;14.90;99.90
37426;DHT22;23285;50.180;7.036;2022-10-30T23:23:29;15.00;99.90
37426;DHT22;23285;50.180;7.036;2022-10-30T23:26:19;14.40;99.90
37426;DHT22;23285;50.180;7.036;2022-10-30T23:29:05;14.00;99.90
37426;DHT22;23285;50.180;7.036;2022-10-30T23:31:50;14.10;99.90
37426;DHT22;23285;50.180;7.036;2022-10-30T23:34:35;14.50;99.90
37426;DHT22;23285;50.180;7.036;2022-10-30T23:37:20;14.20;99.90
37426;DHT22;23285;50.180;7.036;2022-10-30T23:40:05;14.10;99.90
37426;DHT22;23285;50.180;7.036;2022-10-30T23:42:54;14.10;99.90
37426;DHT22;23285;50.180;7.036;2022-10-30T23:45:38;14.30;99.90
37426;DHT22;23285;50.180;7.036;2022-10-30T23:48:24;14.50;99.90
37426;DHT22;23285;50.180;7.036;2022-10-30T23:51:09;14.20;99.90
37426;DHT22;23285;50.180;7.036;2022-10-30T23:53:54;13.80;99.90
37426;DHT22;23285;50.180;7.036;2022-10-30T23:56:39;14.00;99.90
37426;DHT22;23285;50.180;7.036;2022-10-30T23:59:23;14.10;99.90
